Currently 75°F in Anza, California, USA
75°F
96°F / 66°F
4 mph NW
0.00"
Tuesday, June 28, 2022 8:46 PM PDT

Anza, California Weather Summary
Last 36 Hours

Temperature Winds Hourly Humidity Dewpoint
Time Report Norm Report Norm Max Gusts Precip. Rpt. Norm Rpt. Norm Pressure
1Tue 08:46 PM  74.8°F  72°F  4 mph NW  5 mph  9 mph  0.00"  20%  47%  29°F  50°F  30.10"
Tue 08:00 PM  78.1°F  76°F  8 mph NW  6 mph  17 mph  0.00"  16%  41%  26°F  50°F  30.09"
Tue 07:00 PM  83.2°F  81°F  12 mph W  8 mph  20 mph  0.00"  9%  35%  17°F  50°F  30.08"
Tue 06:00 PM  87.2°F  85°F  12 mph W  10 mph  24 mph  0.00"  12%  30%  26°F  49°F  30.07"
Tue 05:00 PM  90.5°F  88°F  15 mph W  10 mph  25 mph  0.00"  11%  26%  27°F  48°F  30.08"
Tue 04:00 PM  93.3°F  89°F  16 mph W  10 mph  24 mph  0.00"  11%  24%  29°F  47°F  30.08"
Tue 03:00 PM  95.0°F  90°F  11 mph W  9 mph  22 mph  0.00"  9%  23%  24°F  46°F  30.10"
2Tue 02:30 PM  96.3°F  90°F  17 mph W  9 mph  22 mph  ----  8%  23%  22°F  46°F  30.11"
Tue 02:00 PM  93.9°F  90°F  5 mph W  9 mph  21 mph  0.00"  9%  22%  24°F  45°F  30.12"
Tue 01:00 PM  92.6°F  89°F  11 mph SE  9 mph  20 mph  0.00"  21%  22%  46°F  44°F  30.13"
Tue 12:00 PM  91.8°F  88°F  9 mph S  8 mph  20 mph  0.00"  21%  22%  46°F  44°F  30.14"
Tue 11:00 AM  89.5°F  87°F  10 mph SE  7 mph  20 mph  0.00"  23%  23%  46°F  43°F  30.15"
Tue 10:00 AM  88.4°F  85°F  8 mph SE  7 mph  16 mph  0.00"  21%  25%  42°F  43°F  30.15"
Tue 09:00 AM  87.4°F  82°F  6 mph SE  6 mph  12 mph  0.00"  21%  28%  41°F  45°F  30.15"
Tue 08:00 AM  85.9°F  77°F  3 mph SE  5 mph  7 mph  0.00"  18%  35%  36°F  46°F  30.15"
Tue 07:00 AM  76.0°F  70°F  3 mph NW  4 mph  4 mph  0.00"  21%  47%  32°F  48°F  30.14"
Tue 06:00 AM  66.8°F  63°F  calm  2 mph  6 mph  0.00"  27%  56%  30°F  46°F  30.13"
Tue 05:00 AM  67.1°F  63°F  calm  3 mph  5 mph  0.00"  26%  56%  30°F  47°F  30.12"
3Tue 04:30 AM  66.0°F  64°F  3 mph NW  3 mph  4 mph  ----  28%  56%  31°F  47°F  30.12"
Tue 04:00 AM  67.3°F  64°F  3 mph NW  3 mph  6 mph  0.00"  25%  57%  29°F  48°F  30.12"
Tue 03:00 AM  69.9°F  64°F  4 mph NW  3 mph  7 mph  0.00"  21%  57%  26°F  48°F  30.12"
Tue 02:00 AM  70.3°F  65°F  5 mph NW  3 mph  7 mph  0.00"  21%  58%  27°F  49°F  30.14"
Tue 01:00 AM  70.1°F  65°F  3 mph NW  4 mph  6 mph  0.00"  24%  58%  30°F  50°F  30.14"
Tue 12:00 AM  72.4°F  66°F  3 mph NW  4 mph  6 mph  0.00"  22%  58%  30°F  50°F  30.15"
Mon 11:00 PM  70.1°F  67°F  3 mph W  4 mph  8 mph  0.00"  18%  57%  23°F  50°F  30.16"
Mon 10:00 PM  70.7°F  68°F  5 mph W  5 mph  8 mph  0.00"  17%  54%  22°F  50°F  30.15"
Mon 09:00 PM  76.5°F  71°F  4 mph NW  5 mph  9 mph  0.00"  12%  49%  17°F  50°F  30.13"
Mon 08:00 PM  81.8°F  76°F  6 mph NW  6 mph  11 mph  0.00"  10%  42%  18°F  50°F  30.12"
Mon 07:00 PM  87.3°F  81°F  6 mph W  8 mph  13 mph  0.00"  11%  35%  24°F  50°F  30.11"
Mon 06:00 PM  86.3°F  85°F  10 mph W  9 mph  14 mph  0.00"  14%  30%  29°F  49°F  30.10"
Mon 05:00 PM  89.1°F  87°F  8 mph SE  10 mph  17 mph  0.00"  31%  26%  54°F  48°F  30.10"
Mon 04:00 PM  89.0°F  89°F  10 mph E  10 mph  18 mph  0.00"  32%  24%  54°F  47°F  30.11"
Mon 03:00 PM  88.1°F  90°F  12 mph SE  9 mph  20 mph  0.00"  35%  23%  56°F  46°F  30.13"
Mon 02:00 PM  88.4°F  90°F  9 mph SE  9 mph  19 mph  0.00"  36%  22%  57°F  45°F  30.15"
Mon 01:00 PM  86.5°F  89°F  11 mph SE  9 mph  19 mph  0.00"  36%  22%  55°F  44°F  30.16"
Mon 12:00 PM  85.0°F  88°F  11 mph SE  8 mph  17 mph  0.00"  39%  22%  56°F  43°F  30.18"
Mon 11:00 AM  83.5°F  87°F  10 mph S  7 mph  16 mph  0.00"  43%  22%  58°F  43°F  30.18"
Mon 10:00 AM  79.9°F  85°F  9 mph SE  6 mph  17 mph  0.00"  50%  24%  59°F  43°F  30.18"
Mon 09:00 AM  77.5°F  82°F  9 mph SE  6 mph  15 mph  0.00"  55%  28%  59°F  44°F  30.19"

  1. Current weather data. No green row appears if the current weather data is also the high or low for the current day.
  2. High temperature for the current day.
  3. Low temperature for the current day.

The Anza, California weather pages are a service of WeatherCurrents. The Anza Valley is southwestern Riverside County, east of Temecula and Aguanga, south of Mount San Jacinto and west of Mount Santa Rosa.
Copyright ©2022  WeatherCurrents. All rights reserved. - Submit questions and comments - Privacy Policy

This page automatically refreshes every 10 minutes.